sensor_id;sensor_type;location;lat;lon;timestamp;temperature;humidity
13713;DHT22;6928;50.546;7.120;2024-03-08T00:02:07;3.83;69.11
13713;DHT22;6928;50.546;7.120;2024-03-08T00:04:34;3.85;68.91
13713;DHT22;6928;50.546;7.120;2024-03-08T00:07:00;3.58;69.78
13713;DHT22;6928;50.546;7.120;2024-03-08T00:09:28;3.64;68.83
13713;DHT22;6928;50.546;7.120;2024-03-08T00:11:56;3.46;69.84
13713;DHT22;6928;50.546;7.120;2024-03-08T00:14:23;3.48;70.01
13713;DHT22;6928;50.546;7.120;2024-03-08T00:16:51;3.11;71.01
13713;DHT22;6928;50.546;7.120;2024-03-08T00:19:19;3.27;72.08
13713;DHT22;6928;50.546;7.120;2024-03-08T00:21:46;3.54;69.89
13713;DHT22;6928;50.546;7.120;2024-03-08T00:24:13;3.64;69.27
13713;DHT22;6928;50.546;7.120;2024-03-08T00:26:39;3.54;69.78
13713;DHT22;6928;50.546;7.120;2024-03-08T00:29:07;3.59;69.16
13713;DHT22;6928;50.546;7.120;2024-03-08T00:31:34;3.27;69.80
13713;DHT22;6928;50.546;7.120;2024-03-08T00:34:00;3.01;71.23
13713;DHT22;6928;50.546;7.120;2024-03-08T00:36:29;3.08;71.12
13713;DHT22;6928;50.546;7.120;2024-03-08T00:38:56;3.15;70.80
13713;DHT22;6928;50.546;7.120;2024-03-08T00:41:25;3.00;71.64
13713;DHT22;6928;50.546;7.120;2024-03-08T00:43:52;3.20;71.17
13713;DHT22;6928;50.546;7.120;2024-03-08T00:46:19;3.08;70.68
13713;DHT22;6928;50.546;7.120;2024-03-08T00:48:45;3.31;70.44
13713;DHT22;6928;50.546;7.120;2024-03-08T00:51:12;3.41;70.32
13713;DHT22;6928;50.546;7.120;2024-03-08T00:53:42;3.13;71.17
13713;DHT22;6928;50.546;7.120;2024-03-08T00:56:12;3.10;71.63
13713;DHT22;6928;50.546;7.120;2024-03-08T00:58:38;3.11;71.53
13713;DHT22;6928;50.546;7.120;2024-03-08T01:01:05;3.15;71.26
13713;DHT22;6928;50.546;7.120;2024-03-08T01:03:32;3.08;71.43
13713;DHT22;6928;50.546;7.120;2024-03-08T01:05:59;2.93;71.31
13713;DHT22;6928;50.546;7.120;2024-03-08T01:08:27;3.05;71.35
13713;DHT22;6928;50.546;7.120;2024-03-08T01:10:55;2.89;71.84
13713;DHT22;6928;50.546;7.120;2024-03-08T01:13:22;2.75;72.38
13713;DHT22;6928;50.546;7.120;2024-03-08T01:15:48;2.82;72.05
13713;DHT22;6928;50.546;7.120;2024-03-08T01:18:15;2.83;72.02
13713;DHT22;6928;50.546;7.120;2024-03-08T01:20:42;2.72;72.04
13713;DHT22;6928;50.546;7.120;2024-03-08T01:23:09;2.75;72.44
13713;DHT22;6928;50.546;7.120;2024-03-08T01:25:36;2.45;72.54
13713;DHT22;6928;50.546;7.120;2024-03-08T01:28:05;2.70;72.41
13713;DHT22;6928;50.546;7.120;2024-03-08T01:30:32;2.66;72.53
13713;DHT22;6928;50.546;7.120;2024-03-08T01:33:00;2.72;72.12
13713;DHT22;6928;50.546;7.120;2024-03-08T01:35:27;2.53;72.47
13713;DHT22;6928;50.546;7.120;2024-03-08T01:37:54;2.21;73.95
13713;DHT22;6928;50.546;7.120;2024-03-08T01:40:21;2.08;74.70
13713;DHT22;6928;50.546;7.120;2024-03-08T01:42:48;2.21;74.18
13713;DHT22;6928;50.546;7.120;2024-03-08T01:45:16;2.14;74.66
13713;DHT22;6928;50.546;7.120;2024-03-08T01:47:43;2.15;74.20
13713;DHT22;6928;50.546;7.120;2024-03-08T01:50:12;2.18;74.36
13713;DHT22;6928;50.546;7.120;2024-03-08T01:52:42;2.38;73.43
13713;DHT22;6928;50.546;7.120;2024-03-08T01:55:09;2.33;73.09
13713;DHT22;6928;50.546;7.120;2024-03-08T01:57:36;2.12;74.57
13713;DHT22;6928;50.546;7.120;2024-03-08T02:00:05;2.33;73.77
13713;DHT22;6928;50.546;7.120;2024-03-08T02:02:37;2.00;74.65
13713;DHT22;6928;50.546;7.120;2024-03-08T02:05:05;2.26;73.83
13713;DHT22;6928;50.546;7.120;2024-03-08T02:07:34;1.95;74.74
13713;DHT22;6928;50.546;7.120;2024-03-08T02:10:01;1.91;75.05
13713;DHT22;6928;50.546;7.120;2024-03-08T02:12:28;2.18;74.29
13713;DHT22;6928;50.546;7.120;2024-03-08T02:14:55;2.10;73.66
13713;DHT22;6928;50.546;7.120;2024-03-08T02:17:22;2.08;74.64
13713;DHT22;6928;50.546;7.120;2024-03-08T02:19:50;1.80;74.75
13713;DHT22;6928;50.546;7.120;2024-03-08T02:22:18;1.68;75.53
13713;DHT22;6928;50.546;7.120;2024-03-08T02:24:45;1.91;75.26
13713;DHT22;6928;50.546;7.120;2024-03-08T02:27:12;2.02;74.49
13713;DHT22;6928;50.546;7.120;2024-03-08T02:29:40;1.75;75.20
13713;DHT22;6928;50.546;7.120;2024-03-08T02:32:09;2.02;74.59
13713;DHT22;6928;50.546;7.120;2024-03-08T02:34:36;1.98;74.04
13713;DHT22;6928;50.546;7.120;2024-03-08T02:37:03;1.94;74.43
13713;DHT22;6928;50.546;7.120;2024-03-08T02:39:31;1.81;75.51
13713;DHT22;6928;50.546;7.120;2024-03-08T02:41:58;1.80;74.92
13713;DHT22;6928;50.546;7.120;2024-03-08T02:44:25;1.73;75.09
13713;DHT22;6928;50.546;7.120;2024-03-08T02:46:51;1.94;74.77
13713;DHT22;6928;50.546;7.120;2024-03-08T02:49:20;1.93;74.49
13713;DHT22;6928;50.546;7.120;2024-03-08T02:51:47;1.84;74.31
13713;DHT22;6928;50.546;7.120;2024-03-08T02:54:14;1.74;74.92
13713;DHT22;6928;50.546;7.120;2024-03-08T02:56:44;1.88;74.14
13713;DHT22;6928;50.546;7.120;2024-03-08T02:59:12;1.57;74.55
13713;DHT22;6928;50.546;7.120;2024-03-08T03:01:38;1.71;74.96
13713;DHT22;6928;50.546;7.120;2024-03-08T03:04:06;1.60;75.05
13713;DHT22;6928;50.546;7.120;2024-03-08T03:06:33;1.33;75.62
13713;DHT22;6928;50.546;7.120;2024-03-08T03:09:01;1.59;75.52
13713;DHT22;6928;50.546;7.120;2024-03-08T03:11:27;1.61;74.98
13713;DHT22;6928;50.546;7.120;2024-03-08T03:13:55;1.37;75.90
13713;DHT22;6928;50.546;7.120;2024-03-08T03:16:22;1.32;76.50
13713;DHT22;6928;50.546;7.120;2024-03-08T03:18:49;1.47;75.99
13713;DHT22;6928;50.546;7.120;2024-03-08T03:21:16;1.50;75.76
13713;DHT22;6928;50.546;7.120;2024-03-08T03:23:43;1.63;75.12
13713;DHT22;6928;50.546;7.120;2024-03-08T03:26:09;1.53;75.39
13713;DHT22;6928;50.546;7.120;2024-03-08T03:28:37;1.53;75.12
13713;DHT22;6928;50.546;7.120;2024-03-08T03:31:06;1.46;75.45
13713;DHT22;6928;50.546;7.120;2024-03-08T03:33:33;1.23;76.72
13713;DHT22;6928;50.546;7.120;2024-03-08T03:36:02;1.26;76.13
13713;DHT22;6928;50.546;7.120;2024-03-08T03:38:30;1.22;76.82
13713;DHT22;6928;50.546;7.120;2024-03-08T03:40:57;1.35;76.48
13713;DHT22;6928;50.546;7.120;2024-03-08T03:43:29;1.46;75.71
13713;DHT22;6928;50.546;7.120;2024-03-08T03:45:56;1.42;75.91
13713;DHT22;6928;50.546;7.120;2024-03-08T03:48:24;1.23;76.06
13713;DHT22;6928;50.546;7.120;2024-03-08T03:50:51;1.10;76.39
13713;DHT22;6928;50.546;7.120;2024-03-08T03:53:18;1.22;76.20
13713;DHT22;6928;50.546;7.120;2024-03-08T03:55:48;1.32;75.94
13713;DHT22;6928;50.546;7.120;2024-03-08T03:58:15;1.09;76.04
13713;DHT22;6928;50.546;7.120;2024-03-08T04:00:48;0.75;78.25
13713;DHT22;6928;50.546;7.120;2024-03-08T04:03:15;1.00;76.95
13713;DHT22;6928;50.546;7.120;2024-03-08T04:05:43;0.93;77.41
13713;DHT22;6928;50.546;7.120;2024-03-08T04:08:10;1.20;76.25
13713;DHT22;6928;50.546;7.120;2024-03-08T04:10:37;0.98;76.79
13713;DHT22;6928;50.546;7.120;2024-03-08T04:13:04;1.02;77.24
13713;DHT22;6928;50.546;7.120;2024-03-08T04:15:31;0.89;77.30
13713;DHT22;6928;50.546;7.120;2024-03-08T04:17:57;1.02;77.24
13713;DHT22;6928;50.546;7.120;2024-03-08T04:20:25;0.79;77.95
13713;DHT22;6928;50.546;7.120;2024-03-08T04:22:54;1.12;76.52
13713;DHT22;6928;50.546;7.120;2024-03-08T04:25:21;1.18;76.27
13713;DHT22;6928;50.546;7.120;2024-03-08T04:27:48;1.22;75.99
13713;DHT22;6928;50.546;7.120;2024-03-08T04:30:15;0.87;76.81
13713;DHT22;6928;50.546;7.120;2024-03-08T04:32:42;1.09;76.10
13713;DHT22;6928;50.546;7.120;2024-03-08T04:35:09;0.84;76.61
13713;DHT22;6928;50.546;7.120;2024-03-08T04:37:37;0.88;76.44
13713;DHT22;6928;50.546;7.120;2024-03-08T04:40:07;0.91;77.19
13713;DHT22;6928;50.546;7.120;2024-03-08T04:42:35;0.84;77.21
13713;DHT22;6928;50.546;7.120;2024-03-08T04:45:04;0.88;76.99
13713;DHT22;6928;50.546;7.120;2024-03-08T04:47:33;0.88;76.76
13713;DHT22;6928;50.546;7.120;2024-03-08T04:50:02;0.88;76.89
13713;DHT22;6928;50.546;7.120;2024-03-08T04:52:29;0.82;76.94
13713;DHT22;6928;50.546;7.120;2024-03-08T04:54:56;0.82;77.10
13713;DHT22;6928;50.546;7.120;2024-03-08T04:57:24;0.20;79.30
13713;DHT22;6928;50.546;7.120;2024-03-08T04:59:51;0.57;78.44
13713;DHT22;6928;50.546;7.120;2024-03-08T05:02:18;0.61;77.34
13713;DHT22;6928;50.546;7.120;2024-03-08T05:04:48;0.87;76.47
13713;DHT22;6928;50.546;7.120;2024-03-08T05:07:15;0.84;76.64
13713;DHT22;6928;50.546;7.120;2024-03-08T05:09:41;0.71;76.76
13713;DHT22;6928;50.546;7.120;2024-03-08T05:12:08;0.87;76.74
13713;DHT22;6928;50.546;7.120;2024-03-08T05:14:36;0.67;77.14
13713;DHT22;6928;50.546;7.120;2024-03-08T05:17:03;0.68;77.47
13713;DHT22;6928;50.546;7.120;2024-03-08T05:19:32;0.69;77.36
13713;DHT22;6928;50.546;7.120;2024-03-08T05:21:59;0.31;78.67
13713;DHT22;6928;50.546;7.120;2024-03-08T05:24:26;0.71;77.15
13713;DHT22;6928;50.546;7.120;2024-03-08T05:26:52;0.57;78.14
13713;DHT22;6928;50.546;7.120;2024-03-08T05:29:19;0.54;77.92
13713;DHT22;6928;50.546;7.120;2024-03-08T05:31:49;0.61;77.81
13713;DHT22;6928;50.546;7.120;2024-03-08T05:34:18;0.33;77.63
13713;DHT22;6928;50.546;7.120;2024-03-08T05:36:46;0.64;77.53
13713;DHT22;6928;50.546;7.120;2024-03-08T05:39:15;0.68;77.38
13713;DHT22;6928;50.546;7.120;2024-03-08T05:41:43;0.57;77.41
13713;DHT22;6928;50.546;7.120;2024-03-08T05:44:12;0.48;78.24
13713;DHT22;6928;50.546;7.120;2024-03-08T05:46:39;0.61;77.96
13713;DHT22;6928;50.546;7.120;2024-03-08T05:49:07;0.58;78.19
13713;DHT22;6928;50.546;7.120;2024-03-08T05:51:37;0.58;77.81
13713;DHT22;6928;50.546;7.120;2024-03-08T05:54:06;0.58;77.63
13713;DHT22;6928;50.546;7.120;2024-03-08T05:56:34;0.44;77.51
13713;DHT22;6928;50.546;7.120;2024-03-08T05:59:01;0.40;78.09
13713;DHT22;6928;50.546;7.120;2024-03-08T06:01:31;0.54;77.92
13713;DHT22;6928;50.546;7.120;2024-03-08T06:04:02;0.57;77.48
13713;DHT22;6928;50.546;7.120;2024-03-08T06:06:31;0.51;77.67
13713;DHT22;6928;50.546;7.120;2024-03-08T06:08:58;0.48;77.25
13713;DHT22;6928;50.546;7.120;2024-03-08T06:11:25;0.57;76.85
13713;DHT22;6928;50.546;7.120;2024-03-08T06:13:53;0.60;76.78
13713;DHT22;6928;50.546;7.120;2024-03-08T06:16:26;0.58;77.10
13713;DHT22;6928;50.546;7.120;2024-03-08T06:18:55;0.38;77.96
13713;DHT22;6928;50.546;7.120;2024-03-08T06:21:23;0.48;77.26
13713;DHT22;6928;50.546;7.120;2024-03-08T06:23:53;0.47;77.25
13713;DHT22;6928;50.546;7.120;2024-03-08T06:26:21;0.43;77.87
13713;DHT22;6928;50.546;7.120;2024-03-08T06:28:48;0.36;78.18
13713;DHT22;6928;50.546;7.120;2024-03-08T06:31:16;0.58;77.58
13713;DHT22;6928;50.546;7.120;2024-03-08T06:33:43;0.27;78.85
13713;DHT22;6928;50.546;7.120;2024-03-08T06:36:10;0.57;77.96
13713;DHT22;6928;50.546;7.120;2024-03-08T06:38:39;0.34;78.10
13713;DHT22;6928;50.546;7.120;2024-03-08T06:41:09;0.61;78.79
13713;DHT22;6928;50.546;7.120;2024-03-08T06:43:41;0.68;77.72
13713;DHT22;6928;50.546;7.120;2024-03-08T06:46:08;0.72;77.45
13713;DHT22;6928;50.546;7.120;2024-03-08T06:48:35;0.65;77.74
13713;DHT22;6928;50.546;7.120;2024-03-08T06:51:03;0.77;77.90
13713;DHT22;6928;50.546;7.120;2024-03-08T06:53:30;0.82;78.36
13713;DHT22;6928;50.546;7.120;2024-03-08T06:55:57;0.99;77.31
13713;DHT22;6928;50.546;7.120;2024-03-08T06:58:26;1.02;77.31
13713;DHT22;6928;50.546;7.120;2024-03-08T07:00:53;1.32;77.76
13713;DHT22;6928;50.546;7.120;2024-03-08T07:03:24;1.44;77.65
13713;DHT22;6928;50.546;7.120;2024-03-08T07:05:52;1.67;77.08
13713;DHT22;6928;50.546;7.120;2024-03-08T07:08:19;1.77;75.76
13713;DHT22;6928;50.546;7.120;2024-03-08T07:10:48;2.25;75.60
13713;DHT22;6928;50.546;7.120;2024-03-08T07:13:15;2.54;73.39
13713;DHT22;6928;50.546;7.120;2024-03-08T07:15:43;2.43;74.36
13713;DHT22;6928;50.546;7.120;2024-03-08T07:18:11;2.32;74.18
13713;DHT22;6928;50.546;7.120;2024-03-08T07:20:40;2.42;73.77
13713;DHT22;6928;50.546;7.120;2024-03-08T07:23:07;2.67;73.95
13713;DHT22;6928;50.546;7.120;2024-03-08T07:25:36;2.70;73.32
13713;DHT22;6928;50.546;7.120;2024-03-08T07:28:04;2.66;73.66
13713;DHT22;6928;50.546;7.120;2024-03-08T07:30:33;3.13;72.73
13713;DHT22;6928;50.546;7.120;2024-03-08T07:33:24;3.55;71.08
13713;DHT22;6928;50.546;7.120;2024-03-08T07:35:51;3.68;70.59
13713;DHT22;6928;50.546;7.120;2024-03-08T07:38:17;3.05;71.98
13713;DHT22;6928;50.546;7.120;2024-03-08T07:40:46;3.15;72.21
13713;DHT22;6928;50.546;7.120;2024-03-08T07:43:14;3.48;72.20
13713;DHT22;6928;50.546;7.120;2024-03-08T07:45:40;3.42;71.53
13713;DHT22;6928;50.546;7.120;2024-03-08T07:48:08;3.83;71.51
13713;DHT22;6928;50.546;7.120;2024-03-08T07:50:37;3.72;71.77
13713;DHT22;6928;50.546;7.120;2024-03-08T07:53:04;4.14;71.50
13713;DHT22;6928;50.546;7.120;2024-03-08T07:55:32;3.96;71.01
13713;DHT22;6928;50.546;7.120;2024-03-08T07:58:00;4.02;70.18
13713;DHT22;6928;50.546;7.120;2024-03-08T08:00:28;4.05;69.38
13713;DHT22;6928;50.546;7.120;2024-03-08T08:02:56;4.30;69.34
13713;DHT22;6928;50.546;7.120;2024-03-08T08:05:23;4.46;68.08
13713;DHT22;6928;50.546;7.120;2024-03-08T08:07:52;4.74;68.04
13713;DHT22;6928;50.546;7.120;2024-03-08T08:10:19;4.95;67.50
13713;DHT22;6928;50.546;7.120;2024-03-08T08:12:48;4.72;67.77
13713;DHT22;6928;50.546;7.120;2024-03-08T08:15:16;4.79;67.73
13713;DHT22;6928;50.546;7.120;2024-03-08T08:17:43;4.75;67.76
13713;DHT22;6928;50.546;7.120;2024-03-08T08:20:11;4.91;67.64
13713;DHT22;6928;50.546;7.120;2024-03-08T08:22:38;4.81;66.79
13713;DHT22;6928;50.546;7.120;2024-03-08T08:25:07;4.88;66.43
13713;DHT22;6928;50.546;7.120;2024-03-08T08:27:34;5.19;66.16
13713;DHT22;6928;50.546;7.120;2024-03-08T08:30:02;5.07;65.69
13713;DHT22;6928;50.546;7.120;2024-03-08T08:32:33;5.08;65.82
13713;DHT22;6928;50.546;7.120;2024-03-08T08:35:00;5.64;65.41
13713;DHT22;6928;50.546;7.120;2024-03-08T08:37:28;5.32;64.87
13713;DHT22;6928;50.546;7.120;2024-03-08T08:39:58;5.38;65.13
13713;DHT22;6928;50.546;7.120;2024-03-08T08:42:32;5.42;64.81
13713;DHT22;6928;50.546;7.120;2024-03-08T08:44:59;5.51;64.83
13713;DHT22;6928;50.546;7.120;2024-03-08T08:47:27;5.57;64.65
13713;DHT22;6928;50.546;7.120;2024-03-08T08:49:53;5.84;64.09
13713;DHT22;6928;50.546;7.120;2024-03-08T08:52:20;5.91;63.18
13713;DHT22;6928;50.546;7.120;2024-03-08T08:54:48;6.04;62.82
13713;DHT22;6928;50.546;7.120;2024-03-08T08:57:15;6.00;62.95
13713;DHT22;6928;50.546;7.120;2024-03-08T08:59:43;6.07;62.50
13713;DHT22;6928;50.546;7.120;2024-03-08T09:02:11;6.24;62.68
13713;DHT22;6928;50.546;7.120;2024-03-08T09:04:38;6.17;62.79
13713;DHT22;6928;50.546;7.120;2024-03-08T09:07:05;6.11;62.87
13713;DHT22;6928;50.546;7.120;2024-03-08T09:09:32;6.52;62.20
13713;DHT22;6928;50.546;7.120;2024-03-08T09:12:00;6.28;62.31
13713;DHT22;6928;50.546;7.120;2024-03-08T09:14:27;6.46;61.93
13713;DHT22;6928;50.546;7.120;2024-03-08T09:16:55;6.34;61.75
13713;DHT22;6928;50.546;7.120;2024-03-08T09:19:22;6.55;61.36
13713;DHT22;6928;50.546;7.120;2024-03-08T09:21:51;6.86;61.02
13713;DHT22;6928;50.546;7.120;2024-03-08T09:24:18;6.83;60.21
13713;DHT22;6928;50.546;7.120;2024-03-08T09:26:44;6.90;60.28
13713;DHT22;6928;50.546;7.120;2024-03-08T09:29:11;6.90;59.31
13713;DHT22;6928;50.546;7.120;2024-03-08T09:31:38;6.68;60.27
13713;DHT22;6928;50.546;7.120;2024-03-08T09:34:06;6.57;59.49
13713;DHT22;6928;50.546;7.120;2024-03-08T09:36:34;6.34;60.58
13713;DHT22;6928;50.546;7.120;2024-03-08T09:39:00;6.48;59.92
13713;DHT22;6928;50.546;7.120;2024-03-08T09:41:27;6.79;60.10
13713;DHT22;6928;50.546;7.120;2024-03-08T09:43:56;7.16;58.87
13713;DHT22;6928;50.546;7.120;2024-03-08T09:46:25;7.48;58.30
13713;DHT22;6928;50.546;7.120;2024-03-08T09:48:53;6.61;60.09
13713;DHT22;6928;50.546;7.120;2024-03-08T09:51:27;7.16;58.63
13713;DHT22;6928;50.546;7.120;2024-03-08T09:53:55;7.51;58.36
13713;DHT22;6928;50.546;7.120;2024-03-08T09:56:23;7.44;58.47
13713;DHT22;6928;50.546;7.120;2024-03-08T09:58:51;7.64;57.85
13713;DHT22;6928;50.546;7.120;2024-03-08T10:01:40;7.83;57.35
13713;DHT22;6928;50.546;7.120;2024-03-08T10:04:07;7.75;57.07
13713;DHT22;6928;50.546;7.120;2024-03-08T10:06:37;8.22;55.54
13713;DHT22;6928;50.546;7.120;2024-03-08T10:09:04;7.59;56.50
13713;DHT22;6928;50.546;7.120;2024-03-08T10:11:33;7.92;55.70
13713;DHT22;6928;50.546;7.120;2024-03-08T10:14:00;8.09;55.24
13713;DHT22;6928;50.546;7.120;2024-03-08T10:16:28;8.02;54.91
13713;DHT22;6928;50.546;7.120;2024-03-08T10:18:56;8.29;54.38
13713;DHT22;6928;50.546;7.120;2024-03-08T10:21:23;8.12;55.78
13713;DHT22;6928;50.546;7.120;2024-03-08T10:23:52;8.61;54.19
13713;DHT22;6928;50.546;7.120;2024-03-08T10:26:19;8.85;52.99
13713;DHT22;6928;50.546;7.120;2024-03-08T10:28:48;8.72;52.98
13713;DHT22;6928;50.546;7.120;2024-03-08T10:31:19;8.74;53.25
13713;DHT22;6928;50.546;7.120;2024-03-08T10:33:47;8.93;52.75
13713;DHT22;6928;50.546;7.120;2024-03-08T10:36:15;8.71;53.63
13713;DHT22;6928;50.546;7.120;2024-03-08T10:38:43;9.23;52.33
13713;DHT22;6928;50.546;7.120;2024-03-08T10:41:13;9.14;52.09
13713;DHT22;6928;50.546;7.120;2024-03-08T10:44:10;9.22;51.99
13713;DHT22;6928;50.546;7.120;2024-03-08T10:46:53;9.47;51.80
13713;DHT22;6928;50.546;7.120;2024-03-08T10:49:30;9.09;51.38
13713;DHT22;6928;50.546;7.120;2024-03-08T10:52:02;9.18;51.50
13713;DHT22;6928;50.546;7.120;2024-03-08T10:54:31;9.43;51.08
13713;DHT22;6928;50.546;7.120;2024-03-08T10:56:59;9.40;50.96
13713;DHT22;6928;50.546;7.120;2024-03-08T10:59:31;9.70;50.48
13713;DHT22;6928;50.546;7.120;2024-03-08T11:02:01;9.43;50.40
13713;DHT22;6928;50.546;7.120;2024-03-08T11:04:31;9.74;50.27
13713;DHT22;6928;50.546;7.120;2024-03-08T11:07:01;9.72;49.38
13713;DHT22;6928;50.546;7.120;2024-03-08T11:09:35;9.53;50.06
13713;DHT22;6928;50.546;7.120;2024-03-08T11:12:24;9.72;49.19
13713;DHT22;6928;50.546;7.120;2024-03-08T11:14:56;9.80;48.14
13713;DHT22;6928;50.546;7.120;2024-03-08T11:17:47;10.00;47.83
13713;DHT22;6928;50.546;7.120;2024-03-08T11:20:16;10.11;47.30
13713;DHT22;6928;50.546;7.120;2024-03-08T11:22:48;9.42;47.42
13713;DHT22;6928;50.546;7.120;2024-03-08T11:25:33;10.33;46.59
13713;DHT22;6928;50.546;7.120;2024-03-08T11:28:18;9.79;45.34
13713;DHT22;6928;50.546;7.120;2024-03-08T11:30:46;9.93;45.24
13713;DHT22;6928;50.546;7.120;2024-03-08T11:33:17;10.18;44.69
13713;DHT22;6928;50.546;7.120;2024-03-08T11:35:44;9.86;44.59
13713;DHT22;6928;50.546;7.120;2024-03-08T11:38:12;10.20;44.74
13713;DHT22;6928;50.546;7.120;2024-03-08T11:40:39;10.48;44.21
13713;DHT22;6928;50.546;7.120;2024-03-08T11:43:07;10.22;44.50
13713;DHT22;6928;50.546;7.120;2024-03-08T11:45:36;10.92;43.31
13713;DHT22;6928;50.546;7.120;2024-03-08T11:48:04;10.08;43.43
13713;DHT22;6928;50.546;7.120;2024-03-08T11:50:31;10.15;43.12
13713;DHT22;6928;50.546;7.120;2024-03-08T11:53:03;10.21;43.34
13713;DHT22;6928;50.546;7.120;2024-03-08T11:55:30;10.18;43.96
13713;DHT22;6928;50.546;7.120;2024-03-08T11:58:02;10.38;42.61
13713;DHT22;6928;50.546;7.120;2024-03-08T12:00:30;10.64;43.15
13713;DHT22;6928;50.546;7.120;2024-03-08T12:03:07;10.96;42.93
13713;DHT22;6928;50.546;7.120;2024-03-08T12:05:35;10.65;42.01
13713;DHT22;6928;50.546;7.120;2024-03-08T12:08:04;10.49;42.91
13713;DHT22;6928;50.546;7.120;2024-03-08T12:10:32;11.06;42.34
13713;DHT22;6928;50.546;7.120;2024-03-08T12:13:00;11.26;41.78
13713;DHT22;6928;50.546;7.120;2024-03-08T12:15:29;11.23;41.87
13713;DHT22;6928;50.546;7.120;2024-03-08T12:17:59;10.89;42.34
13713;DHT22;6928;50.546;7.120;2024-03-08T12:20:29;10.72;43.11
13713;DHT22;6928;50.546;7.120;2024-03-08T12:22:57;10.88;42.44
13713;DHT22;6928;50.546;7.120;2024-03-08T12:25:26;11.37;42.42
13713;DHT22;6928;50.546;7.120;2024-03-08T12:27:54;10.91;42.10
13713;DHT22;6928;50.546;7.120;2024-03-08T12:30:23;11.16;42.73
13713;DHT22;6928;50.546;7.120;2024-03-08T12:32:54;11.82;41.33
13713;DHT22;6928;50.546;7.120;2024-03-08T12:35:24;11.26;42.73
13713;DHT22;6928;50.546;7.120;2024-03-08T12:37:54;11.34;41.06
13713;DHT22;6928;50.546;7.120;2024-03-08T12:40:26;11.30;41.59
13713;DHT22;6928;50.546;7.120;2024-03-08T12:42:54;11.73;42.30
13713;DHT22;6928;50.546;7.120;2024-03-08T12:45:21;11.61;41.44
13713;DHT22;6928;50.546;7.120;2024-03-08T12:47:50;11.56;42.17
13713;DHT22;6928;50.546;7.120;2024-03-08T12:50:16;11.10;41.30
13713;DHT22;6928;50.546;7.120;2024-03-08T12:52:43;11.68;41.96
13713;DHT22;6928;50.546;7.120;2024-03-08T12:55:11;12.26;40.50
13713;DHT22;6928;50.546;7.120;2024-03-08T12:57:39;11.94;40.94
13713;DHT22;6928;50.546;7.120;2024-03-08T13:00:07;12.24;40.53
13713;DHT22;6928;50.546;7.120;2024-03-08T13:02:39;11.41;40.76
13713;DHT22;6928;50.546;7.120;2024-03-08T13:05:08;11.53;41.30
13713;DHT22;6928;50.546;7.120;2024-03-08T13:07:36;11.84;40.61
13713;DHT22;6928;50.546;7.120;2024-03-08T13:10:05;11.19;41.61
13713;DHT22;6928;50.546;7.120;2024-03-08T13:12:34;11.40;42.17
13713;DHT22;6928;50.546;7.120;2024-03-08T13:15:04;11.47;41.73
13713;DHT22;6928;50.546;7.120;2024-03-08T13:17:31;11.56;41.74
13713;DHT22;6928;50.546;7.120;2024-03-08T13:19:58;11.73;41.94
13713;DHT22;6928;50.546;7.120;2024-03-08T13:22:25;12.26;40.58
13713;DHT22;6928;50.546;7.120;2024-03-08T13:24:53;12.19;40.76
13713;DHT22;6928;50.546;7.120;2024-03-08T13:27:20;11.60;41.78
13713;DHT22;6928;50.546;7.120;2024-03-08T13:29:49;12.21;41.20
13713;DHT22;6928;50.546;7.120;2024-03-08T13:32:16;11.98;40.92
13713;DHT22;6928;50.546;7.120;2024-03-08T13:34:46;11.58;41.91
13713;DHT22;6928;50.546;7.120;2024-03-08T13:37:16;11.84;40.90
13713;DHT22;6928;50.546;7.120;2024-03-08T13:39:43;11.53;41.54
13713;DHT22;6928;50.546;7.120;2024-03-08T13:42:11;11.71;42.01
13713;DHT22;6928;50.546;7.120;2024-03-08T13:44:43;11.81;42.47
13713;DHT22;6928;50.546;7.120;2024-03-08T13:47:11;11.82;42.41
13713;DHT22;6928;50.546;7.120;2024-03-08T13:49:39;12.08;41.85
13713;DHT22;6928;50.546;7.120;2024-03-08T13:52:06;11.79;42.58
13713;DHT22;6928;50.546;7.120;2024-03-08T13:54:34;12.24;41.12
13713;DHT22;6928;50.546;7.120;2024-03-08T13:57:01;11.88;42.01
13713;DHT22;6928;50.546;7.120;2024-03-08T13:59:29;11.78;43.00
13713;DHT22;6928;50.546;7.120;2024-03-08T14:01:58;12.09;42.26
13713;DHT22;6928;50.546;7.120;2024-03-08T14:04:28;11.87;42.21
13713;DHT22;6928;50.546;7.120;2024-03-08T14:06:55;11.89;42.45
13713;DHT22;6928;50.546;7.120;2024-03-08T14:09:27;12.14;42.61
13713;DHT22;6928;50.546;7.120;2024-03-08T14:11:54;12.11;42.22
13713;DHT22;6928;50.546;7.120;2024-03-08T14:14:22;11.99;42.50
13713;DHT22;6928;50.546;7.120;2024-03-08T14:16:49;12.06;42.35
13713;DHT22;6928;50.546;7.120;2024-03-08T14:19:19;12.19;42.61
13713;DHT22;6928;50.546;7.120;2024-03-08T14:21:47;11.91;42.54
13713;DHT22;6928;50.546;7.120;2024-03-08T14:24:15;11.89;42.34
13713;DHT22;6928;50.546;7.120;2024-03-08T14:26:42;11.79;42.88
13713;DHT22;6928;50.546;7.120;2024-03-08T14:29:09;11.77;42.94
13713;DHT22;6928;50.546;7.120;2024-03-08T14:31:36;12.18;42.84
13713;DHT22;6928;50.546;7.120;2024-03-08T14:34:03;11.95;43.01
13713;DHT22;6928;50.546;7.120;2024-03-08T14:36:30;12.24;42.77
13713;DHT22;6928;50.546;7.120;2024-03-08T14:38:58;11.89;42.81
13713;DHT22;6928;50.546;7.120;2024-03-08T14:41:25;11.94;43.22
13713;DHT22;6928;50.546;7.120;2024-03-08T14:43:52;12.02;43.04
13713;DHT22;6928;50.546;7.120;2024-03-08T14:46:19;12.02;42.79
13713;DHT22;6928;50.546;7.120;2024-03-08T14:48:48;11.87;42.38
13713;DHT22;6928;50.546;7.120;2024-03-08T14:51:17;12.08;42.18
13713;DHT22;6928;50.546;7.120;2024-03-08T14:53:46;11.99;42.08
13713;DHT22;6928;50.546;7.120;2024-03-08T14:56:15;12.15;42.44
13713;DHT22;6928;50.546;7.120;2024-03-08T14:58:43;11.84;42.98
13713;DHT22;6928;50.546;7.120;2024-03-08T15:01:10;11.43;43.22
13713;DHT22;6928;50.546;7.120;2024-03-08T15:03:39;11.50;43.19
13713;DHT22;6928;50.546;7.120;2024-03-08T15:06:06;11.85;43.48
13713;DHT22;6928;50.546;7.120;2024-03-08T15:08:35;11.89;43.30
13713;DHT22;6928;50.546;7.120;2024-03-08T15:11:03;11.79;42.85
13713;DHT22;6928;50.546;7.120;2024-03-08T15:13:33;11.84;43.06
13713;DHT22;6928;50.546;7.120;2024-03-08T15:16:08;11.94;42.79
13713;DHT22;6928;50.546;7.120;2024-03-08T15:18:40;11.75;43.02
13713;DHT22;6928;50.546;7.120;2024-03-08T15:21:07;11.97;42.70
13713;DHT22;6928;50.546;7.120;2024-03-08T15:23:34;11.82;43.38
13713;DHT22;6928;50.546;7.120;2024-03-08T15:26:03;12.09;43.14
13713;DHT22;6928;50.546;7.120;2024-03-08T15:28:35;12.25;42.74
13713;DHT22;6928;50.546;7.120;2024-03-08T15:31:06;11.97;42.90
13713;DHT22;6928;50.546;7.120;2024-03-08T15:33:34;11.67;43.69
13713;DHT22;6928;50.546;7.120;2024-03-08T15:36:07;11.63;43.73
13713;DHT22;6928;50.546;7.120;2024-03-08T15:38:35;11.94;43.50
13713;DHT22;6928;50.546;7.120;2024-03-08T15:41:02;11.85;43.90
13713;DHT22;6928;50.546;7.120;2024-03-08T15:43:34;12.01;43.67
13713;DHT22;6928;50.546;7.120;2024-03-08T15:46:02;11.94;43.89
13713;DHT22;6928;50.546;7.120;2024-03-08T15:48:31;11.73;43.88
13713;DHT22;6928;50.546;7.120;2024-03-08T15:50:59;12.08;43.61
13713;DHT22;6928;50.546;7.120;2024-03-08T15:53:28;12.06;43.60
13713;DHT22;6928;50.546;7.120;2024-03-08T15:55:56;11.77;43.94
13713;DHT22;6928;50.546;7.120;2024-03-08T15:58:23;11.58;44.30
13713;DHT22;6928;50.546;7.120;2024-03-08T16:00:52;11.71;43.97
13713;DHT22;6928;50.546;7.120;2024-03-08T16:03:19;11.67;43.93
13713;DHT22;6928;50.546;7.120;2024-03-08T16:05:47;11.74;44.12